KIIB

Independence Municipal Airport

Independence, Iowa, USA
METAR KIIB 230755Z AUTO 18006KT 1 1/2SM DZ OVC002 00/00 A3012 RMK AO2 P0004 T00030003
Observed Flight Rules
Feb-23 @ 07:55 UTC (10 minutes ago) Instrument Flight Rules
Wind Visibility Clouds Conditions
180° at 6 knots 1 1/2 miles
  • Overcast at 200' AGL
  • Drizzle
Temperatures Readings Precipitation
Current 0°C / 32°F
Dewpoint 0°C / 32°F
Humidity 100%
Altimeter 30.12" Hg
Pressure 1020 hPa
Elevation 298
Current Rain 0.04
METAR KIIB 230755Z AUTO 18006KT 1 1/2SM DZ OVC002 00/00 A3012 RMK AO2 P0004 T00030003
Observed Flight Rules
Feb-23 @ 07:55 UTC
(10 minutes ago)
LIFR
Wind Visibility
180° at 6 knots 1 1/2 miles
Clouds
  • Overcast at 200' AGL
Conditions
  • Drizzle
Temperature Dewpoint
0°C / 32°F 0°C / 32°F
Humidity Altimeter Pressure
100% 30.12" Hg 1020 hPa
Current Rain
0.04